Time;durP1;ratioP1;P1;durP2;ratioP2;P2;SDS_P1;SDS_P2;PMS_P1;PMS_P2;Temp;Humidity;BMP_temperature;BMP_pressure;BME280_temperature;BME280_humidity;BME280_pressure;Samples;Min_cycle;Max_cycle;Signal;HPM_P1;HPM_P2
2023/09/29 00:02:34;;;;;;;3.92;1.20;;;;;;;21.05;49.10;101482.22;16126426;19;129861;-55
2023/09/29 00:07:57;;;;;;;2.53;1.33;;;;;;;21.05;49.35;101482.22;16123245;19;131376;-53
2023/09/29 00:13:19;;;;;;;3.78;1.25;;;;;;;21.05;49.42;101479.44;16122963;19;130876;-52
2023/09/29 00:18:42;;;;;;;3.17;1.25;;;;;;;21.03;49.47;101462.16;16116365;19;130427;-50
2023/09/29 00:24:04;;;;;;;2.67;1.30;;;;;;;21.03;49.41;101470.50;16111778;19;130807;-53
2023/09/29 00:29:26;;;;;;;2.88;1.02;;;;;;;21.01;49.17;101458.78;16116053;19;131252;-52
2023/09/29 00:34:48;;;;;;;2.35;1.10;;;;;;;21.01;49.39;101444.88;16117367;19;129488;-53
2023/09/29 00:40:12;;;;;;;4.72;1.10;;;;;;;21.00;49.49;101445.97;16110866;19;131081;-53
2023/09/29 00:45:35;;;;;;;3.00;1.05;;;;;;;20.99;49.49;101447.91;16112679;19;129467;-52
2023/09/29 00:50:57;;;;;;;3.70;1.45;;;;;;;20.98;49.46;101440.69;16113824;19;130612;-52
2023/09/29 00:56:20;;;;;;;2.03;1.00;;;;;;;20.98;49.55;101442.59;16112320;19;129942;-53
2023/09/29 01:01:42;;;;;;;2.30;0.90;;;;;;;20.97;49.73;101440.91;16109739;19;131063;-54
2023/09/29 01:07:06;;;;;;;2.08;1.00;;;;;;;20.96;49.35;101451.19;16114519;19;132396;-55
2023/09/29 01:12:28;;;;;;;2.15;1.10;;;;;;;20.96;49.35;101433.66;16110029;19;129773;-54
2023/09/29 01:17:51;;;;;;;1.70;0.73;;;;;;;20.95;49.52;101427.25;16113201;19;129794;-52
2023/09/29 01:23:13;;;;;;;3.15;1.00;;;;;;;20.96;49.37;101422.53;16110652;19;131808;-54
2023/09/29 01:28:35;;;;;;;1.70;0.55;;;;;;;20.95;49.73;101406.94;16104652;19;131012;-50
2023/09/29 01:33:57;;;;;;;1.50;0.80;;;;;;;20.93;49.53;101400.75;16109304;19;129862;-48
2023/09/29 01:39:20;;;;;;;1.63;0.70;;;;;;;20.93;49.29;101400.75;16109571;19;130900;-52
2023/09/29 01:44:42;;;;;;;1.80;1.00;;;;;;;20.90;49.67;101389.06;16109320;19;130367;-54
2023/09/29 01:50:05;;;;;;;1.70;0.80;;;;;;;20.90;49.31;101397.41;16108979;19;130226;-53
2023/09/29 01:55:27;;;;;;;1.27;0.70;;;;;;;20.90;49.62;101388.22;16104166;19;130829;-50
2023/09/29 02:00:50;;;;;;;1.90;0.70;;;;;;;20.90;49.71;101380.72;16110064;19;129856;-55
2023/09/29 02:06:13;;;;;;;1.95;0.82;;;;;;;20.90;49.48;101386.28;16106615;19;129368;-52
2023/09/29 02:11:39;;;;;;;0.75;0.63;;;;;;;20.89;49.62;101379.03;16108248;19;130522;-52
2023/09/29 02:17:02;;;;;;;1.27;0.68;;;;;;;20.89;49.59;101367.91;16109834;19;131730;-54
2023/09/29 02:22:24;;;;;;;1.35;0.80;;;;;;;20.88;49.39;101355.09;16107869;19;130626;-52
2023/09/29 02:27:47;;;;;;;2.38;0.88;;;;;;;20.87;49.79;101347.84;16109699;19;131653;-54
2023/09/29 02:33:09;;;;;;;1.42;0.70;;;;;;;20.86;49.55;101329.47;16108051;19;129304;-53
2023/09/29 02:38:31;;;;;;;1.95;0.60;;;;;;;20.86;49.82;101323.91;16105832;19;130591;-51
2023/09/29 02:43:53;;;;;;;1.95;0.85;;;;;;;20.86;49.54;101323.91;16108930;19;129891;-53
2023/09/29 02:49:16;;;;;;;1.65;0.80;;;;;;;20.85;49.51;101327.78;16121488;19;131090;-53
2023/09/29 02:54:39;;;;;;;1.20;0.70;;;;;;;20.86;49.64;101323.91;16120376;19;129907;-50
2023/09/29 03:00:06;;;;;;;1.42;0.80;;;;;;;20.85;49.84;101319.44;16125802;19;130786;-55
2023/09/29 03:05:28;;;;;;;2.53;1.00;;;;;;;20.85;49.56;101313.88;16123985;19;129916;-47
2023/09/29 03:10:50;;;;;;;0.98;0.70;;;;;;;20.84;49.64;101314.97;16124316;19;130528;-47
2023/09/29 03:16:13;;;;;;;1.73;0.70;;;;;;;20.84;49.39;101303.84;16123824;19;134436;-50
2023/09/29 03:21:35;;;;;;;1.38;0.60;;;;;;;20.84;49.89;101297.47;16119729;19;129631;-48
2023/09/29 03:26:57;;;;;;;0.98;0.80;;;;;;;20.83;49.86;101287.44;16123544;19;129786;-54
2023/09/29 03:32:19;;;;;;;1.73;0.68;;;;;;;20.83;49.57;101273.53;16121483;19;129641;-49
2023/09/29 03:37:43;;;;;;;1.00;0.70;;;;;;;20.81;49.59;101279.31;16119958;19;129933;-54
2023/09/29 03:43:09;;;;;;;2.25;0.90;;;;;;;20.81;49.48;101259.88;16120208;19;130758;-52
2023/09/29 03:48:31;;;;;;;2.20;0.80;;;;;;;20.82;49.60;101266.28;16120448;19;129682;-52
2023/09/29 03:53:55;;;;;;;1.02;0.60;;;;;;;20.81;49.84;101270.97;16124302;19;130470;-54
2023/09/29 03:59:18;;;;;;;1.70;0.60;;;;;;;20.80;49.41;101260.13;16123662;19;129270;-55
2023/09/29 04:04:40;;;;;;;1.65;0.75;;;;;;;20.79;49.39;101259.28;16121855;19;129805;-54
2023/09/29 04:10:05;;;;;;;0.93;0.50;;;;;;;20.80;49.70;101260.13;16121206;19;130496;-52
2023/09/29 04:15:27;;;;;;;1.02;0.60;;;;;;;20.78;49.42;101256.75;16120610;19;132819;-55
2023/09/29 04:20:49;;;;;;;1.50;0.80;;;;;;;20.77;49.71;101250.38;16121609;19;131035;-49
2023/09/29 04:26:19;;;;;;;1.95;0.70;;;;;;;20.78;49.79;101243.72;16118126;19;130277;-55
2023/09/29 04:31:41;;;;;;;0.88;0.60;;;;;;;20.79;49.50;101244.53;16116628;19;129331;-54
2023/09/29 04:37:03;;;;;;;1.00;0.57;;;;;;;20.78;49.48;101245.63;16118401;19;129323;-56
2023/09/29 04:42:25;;;;;;;1.27;0.55;;;;;;;20.77;49.75;101242.03;16117856;19;130146;-53
2023/09/29 04:47:47;;;;;;;1.45;0.52;;;;;;;20.76;49.59;101240.34;16118207;19;130885;-56
2023/09/29 04:53:09;;;;;;;3.70;0.80;;;;;;;20.75;49.90;101239.47;16120314;19;129651;-56
2023/09/29 04:58:31;;;;;;;1.65;0.60;;;;;;;20.76;49.62;101232.00;16117337;19;130690;-54
2023/09/29 05:03:53;;;;;;;3.28;0.85;;;;;;;20.75;49.78;101233.91;16113154;19;130625;-54
2023/09/29 05:09:16;;;;;;;2.45;0.77;;;;;;;20.75;49.55;101222.78;16112270;19;130803;-53
2023/09/29 05:14:38;;;;;;;3.38;0.70;;;;;;;20.75;49.70;101222.78;16114427;19;130647;-57
2023/09/29 05:20:00;;;;;;;0.95;0.57;;;;;;;20.75;49.77;101233.91;16112344;19;129746;-52
2023/09/29 05:25:22;;;;;;;1.17;0.60;;;;;;;20.74;50.22;101221.06;16112934;19;130108;-56
2023/09/29 05:30:53;;;;;;;2.50;0.90;;;;;;;20.79;50.40;101223.16;16117993;19;130566;-55
2023/09/29 05:36:15;;;;;;;7.40;0.90;;;;;;;20.82;50.58;101233.75;16114050;19;131046;-51
2023/09/29 05:41:37;;;;;;;6.85;0.93;;;;;;;20.85;50.25;101227.69;16114649;19;129873;-55
2023/09/29 05:46:59;;;;;;;5.70;1.10;;;;;;;20.88;50.51;101238.31;16109447;19;130010;-57
2023/09/29 05:52:21;;;;;;;5.78;0.60;;;;;;;20.90;50.48;101232.47;16105736;19;130993;-54
2023/09/29 05:57:43;;;;;;;9.23;1.25;;;;;;;20.89;50.24;101245.56;16113675;19;129491;-57
2023/09/29 06:03:05;;;;;;;6.13;1.05;;;;;;;20.89;50.23;101241.91;16111278;19;129802;-55
2023/09/29 06:08:27;;;;;;;5.35;0.88;;;;;;;20.89;50.69;101253.03;16112166;19;133977;-58
2023/09/29 06:14:08;;;;;;;2.85;1.20;;;;;;;20.89;50.45;101256.69;16114017;19;129535;-57
2023/09/29 06:19:30;;;;;;;3.28;1.20;;;;;;;20.89;50.38;101245.56;16119168;19;131153;-57
2023/09/29 06:24:52;;;;;;;4.65;0.82;;;;;;;20.89;50.47;101253.03;16127452;19;129396;-56
2023/09/29 06:30:14;;;;;;;3.30;0.95;;;;;;;20.88;50.68;101249.44;16127339;19;129448;-55
2023/09/29 06:35:36;;;;;;;2.25;0.82;;;;;;;20.90;50.30;101263.94;16123567;19;130108;-55
2023/09/29 06:40:58;;;;;;;2.95;0.95;;;;;;;20.94;50.60;101269.81;16125981;19;130908;-56
2023/09/29 06:46:20;;;;;;;1.95;0.98;;;;;;;20.95;50.15;101263.16;16125242;19;130862;-55
2023/09/29 06:51:42;;;;;;;2.30;0.80;;;;;;;20.94;50.51;101263.41;16122655;19;134199;-56
2023/09/29 06:57:04;;;;;;;1.75;0.82;;;;;;;20.95;50.67;101270.66;16123718;19;131174;-53
2023/09/29 07:02:26;;;;;;;2.13;1.00;;;;;;;20.95;50.42;101270.66;16125408;19;129299;-57
2023/09/29 07:07:48;;;;;;;2.33;1.00;;;;;;;20.94;50.32;101274.53;16121165;19;130214;-56
2023/09/29 07:13:10;;;;;;;2.13;0.85;;;;;;;20.94;50.63;101274.53;16125510;19;129627;-57
2023/09/29 07:18:32;;;;;;;2.03;1.08;;;;;;;20.96;50.57;101289.88;16127452;19;134423;-59
2023/09/29 07:23:56;;;;;;;1.92;0.80;;;;;;;21.00;50.54;101291.03;16123242;19;129712;-55
2023/09/29 07:29:18;;;;;;;1.83;1.02;;;;;;;21.05;50.41;101296.69;16122851;19;129343;-57
2023/09/29 07:34:40;;;;;;;1.98;0.95;;;;;;;21.09;50.76;101302.59;16120544;19;129417;-54
2023/09/29 07:40:02;;;;;;;1.77;1.02;;;;;;;21.10;50.74;101298.72;16123042;19;129645;-56
2023/09/29 07:45:24;;;;;;;2.45;1.23;;;;;;;21.08;50.65;101309.25;16120362;19;130960;-56
2023/09/29 07:50:46;;;;;;;2.53;1.10;;;;;;;21.09;50.79;101321.22;16120957;19;130085;-56
2023/09/29 07:56:08;;;;;;;3.13;0.95;;;;;;;21.09;50.99;101327.63;16119883;19;130795;-55
2023/09/29 08:01:30;;;;;;;2.85;1.10;;;;;;;21.11;50.76;101322.66;16120294;19;129711;-55
2023/09/29 08:06:53;;;;;;;2.35;1.00;;;;;;;21.17;50.43;101334.72;16123509;19;133188;-57
2023/09/29 08:12:15;;;;;;;1.73;1.13;;;;;;;21.17;50.73;101351.41;16117025;19;131016;-57
2023/09/29 08:17:37;;;;;;;2.55;1.00;;;;;;;21.20;50.73;101350.91;16121443;19;129369;-56
2023/09/29 08:22:59;;;;;;;8.48;1.42;;;;;;;21.21;50.62;101358.97;16118364;19;130288;-56
2023/09/29 08:28:21;;;;;;;2.63;1.20;;;;;;;21.18;50.75;101365.03;16117494;19;129634;-56
2023/09/29 08:33:43;;;;;;;3.10;1.33;;;;;;;21.19;50.74;101372.28;16118443;19;130275;-57
2023/09/29 08:39:12;;;;;;;2.85;1.33;;;;;;;21.18;50.88;101373.41;16120401;19;129468;-55
2023/09/29 08:44:34;;;;;;;6.60;1.65;;;;;;;21.16;50.83;101381.16;16111784;19;129595;-54
2023/09/29 08:49:57;;;;;;;3.38;1.40;;;;;;;21.16;50.97;101386.75;16115086;19;129683;-56
2023/09/29 08:55:20;;;;;;;6.72;1.58;;;;;;;21.15;51.31;101387.84;16114557;19;129457;-57
2023/09/29 09:00:43;;;;;;;5.10;1.60;;;;;;;21.16;51.08;101405.34;16114217;19;131829;-54
2023/09/29 09:06:37;;;;;;;4.15;1.55;;;;;;;21.16;51.02;101409.00;16114550;19;131325;-55
2023/09/29 09:11:59;;;;;;;4.25;1.85;;;;;;;21.13;51.14;101409.50;16113635;19;130006;-57
2023/09/29 09:17:21;;;;;;;8.70;1.83;;;;;;;21.12;51.44;101409.72;16112364;19;130618;-52
2023/09/29 09:22:44;;;;;;;6.20;2.47;;;;;;;21.11;51.74;101408.91;16111203;19;129352;-54
2023/09/29 09:28:15;;;;;;;4.40;2.03;;;;;;;21.13;51.49;101423.41;16113634;19;134492;-54
2023/09/29 09:33:37;;;;;;;4.57;2.20;;;;;;;21.14;51.64;101419.53;16109254;19;129859;-54
2023/09/29 09:39:03;;;;;;;8.60;2.03;;;;;;;21.18;51.49;101431.81;16113062;19;130615;-54
2023/09/29 09:44:26;;;;;;;5.32;1.70;;;;;;;21.20;51.56;101440.75;16110669;19;129321;-50
2023/09/29 09:49:52;;;;;;;3.97;1.98;;;;;;;21.22;51.89;101441.38;16111428;19;131042;-50
2023/09/29 09:55:15;;;;;;;7.03;1.88;;;;;;;21.25;51.84;101450.31;16123327;19;130400;-52
2023/09/29 10:00:44;;;;;;;6.38;2.28;;;;;;;21.24;51.98;101455.00;16127790;19;131125;-53
2023/09/29 10:06:07;;;;;;;5.40;2.15;;;;;;;21.20;51.94;101448.28;16126449;19;131098;-55
2023/09/29 10:11:30;;;;;;;6.20;2.10;;;;;;;21.18;52.42;101468.00;16125169;19;129732;-56
2023/09/29 10:17:06;;;;;;;5.43;2.35;;;;;;;21.19;52.33;101479.97;16129296;19;130070;-53
2023/09/29 10:22:31;;;;;;;;;;;;;;;21.14;52.16;101469.59;16124524;19;134600;-52
2023/09/29 10:28:00;;;;;;;6.88;1.85;;;;;;;21.17;52.19;101477.44;16128482;19;130608;-55
2023/09/29 10:33:23;;;;;;;6.72;2.25;;;;;;;21.14;52.25;101477.97;16121573;19;131550;-54
2023/09/29 10:38:45;;;;;;;5.78;1.98;;;;;;;21.15;52.52;101485.22;16122492;19;130211;-54
2023/09/29 10:44:11;;;;;;;4.93;1.92;;;;;;;21.15;52.58;101498.25;16121921;19;130367;-52
2023/09/29 10:49:33;;;;;;;10.65;1.90;;;;;;;21.14;52.50;101508.56;16121826;19;135943;-52
2023/09/29 10:54:59;;;;;;;6.55;1.77;;;;;;;21.14;52.44;101505.78;16120880;19;130561;-51
2023/09/29 11:00:22;;;;;;;5.72;2.00;;;;;;;21.13;52.45;101501.31;16123820;19;130666;-53
2023/09/29 11:05:49;;;;;;;5.60;2.15;;;;;;;21.14;52.52;101510.47;16121819;19;129389;-51
2023/09/29 11:11:11;;;;;;;6.60;1.90;;;;;;;21.13;52.49;101517.13;16117450;19;129934;-52
2023/09/29 11:16:33;;;;;;;4.45;1.80;;;;;;;21.11;52.55;101531.31;16120813;19;129680;-49
2023/09/29 11:21:58;;;;;;;4.93;1.95;;;;;;;21.11;52.52;101541.59;16122349;19;131393;-53
2023/09/29 11:27:20;;;;;;;3.42;1.73;;;;;;;21.10;52.62;101549.09;16120680;19;130056;-51
2023/09/29 11:32:43;;;;;;;4.82;2.08;;;;;;;21.13;52.66;101543.03;16122888;19;130236;-53
2023/09/29 11:38:05;;;;;;;4.15;1.58;;;;;;;21.13;52.29;101551.38;16122197;19;130585;-55
2023/09/29 11:43:27;;;;;;;3.05;1.60;;;;;;;21.14;52.52;101557.78;16119502;19;134525;-53
2023/09/29 11:48:49;;;;;;;5.57;1.77;;;;;;;21.14;52.90;101558.63;16121718;19;129636;-52
2023/09/29 11:54:11;;;;;;;3.15;1.70;;;;;;;21.15;52.66;101565.03;16120847;19;129266;-48
2023/09/29 11:59:33;;;;;;;4.30;1.60;;;;;;;21.15;52.84;101570.59;16115087;19;131221;-55
2023/09/29 12:04:55;;;;;;;4.70;1.42;;;;;;;21.14;52.77;101591.16;16118854;19;129561;-52
2023/09/29 12:10:17;;;;;;;4.68;1.52;;;;;;;21.13;53.04;101609.81;16119294;19;129487;-52
2023/09/29 12:15:40;;;;;;;3.03;1.50;;;;;;;21.12;52.93;101612.81;16113235;19;130386;-53
2023/09/29 12:21:09;;;;;;;2.45;1.40;;;;;;;21.12;52.80;101643.44;16115212;19;130039;-51
2023/09/29 12:26:31;;;;;;;3.92;1.42;;;;;;;21.10;52.68;101656.75;16112404;19;129908;-47
2023/09/29 12:31:53;;;;;;;2.97;1.45;;;;;;;21.09;52.92;101680.94;16114152;19;129159;-55
2023/09/29 12:37:15;;;;;;;5.03;1.20;;;;;;;21.10;53.00;101696.53;16113951;19;130448;-52
2023/09/29 12:42:41;;;;;;;3.00;1.10;;;;;;;21.11;52.63;101702.97;16115112;19;130531;-53
2023/09/29 12:48:03;;;;;;;3.38;1.10;;;;;;;21.11;52.71;101714.09;16111021;19;130629;-52
2023/09/29 12:53:25;;;;;;;2.58;1.08;;;;;;;21.11;52.94;101720.50;16111865;19;130134;-55
2023/09/29 12:58:47;;;;;;;2.63;1.63;;;;;;;21.12;52.83;101744.44;16113114;19;131020;-50
2023/09/29 13:04:09;;;;;;;1.95;1.00;;;;;;;21.14;52.63;101763.69;16117221;19;130315;-56
2023/09/29 13:09:32;;;;;;;2.72;1.15;;;;;;;21.14;52.78;101766.47;16111953;19;131051;-56
2023/09/29 13:14:54;;;;;;;2.75;1.02;;;;;;;21.15;52.79;101771.78;16114860;19;130796;-55
2023/09/29 13:20:16;;;;;;;1.88;1.00;;;;;;;21.16;52.73;101783.75;16114930;19;129785;-56
2023/09/29 13:25:38;;;;;;;2.92;0.75;;;;;;;21.17;52.65;101794.63;16112615;19;131029;-54
2023/09/29 13:31:01;;;;;;;3.03;0.93;;;;;;;21.20;52.81;101807.25;16109515;19;131270;-57
2023/09/29 13:36:23;;;;;;;2.63;0.90;;;;;;;21.25;52.39;101814.84;16113046;19;130343;-57
2023/09/29 13:41:45;;;;;;;3.67;0.88;;;;;;;21.28;52.18;101822.72;16116061;19;131852;-57
2023/09/29 13:47:07;;;;;;;2.60;0.95;;;;;;;21.31;52.40;101825.00;16110504;19;130291;-58
2023/09/29 13:52:30;;;;;;;4.63;1.05;;;;;;;21.31;52.47;101819.44;16112535;19;129540;-58
2023/09/29 13:57:53;;;;;;;2.17;0.88;;;;;;;21.32;52.23;101848.97;16109526;19;132342;-56
2023/09/29 14:03:16;;;;;;;2.38;0.90;;;;;;;21.33;52.16;101856.22;16109826;19;130916;-55
2023/09/29 14:08:38;;;;;;;2.08;1.00;;;;;;;21.33;52.23;101859.00;16109121;19;129554;-52
2023/09/29 14:14:00;;;;;;;1.83;0.65;;;;;;;21.35;52.16;101865.19;16109882;19;129742;-53
2023/09/29 14:19:22;;;;;;;3.20;0.90;;;;;;;21.37;52.00;101877.75;16105613;19;129655;-55
2023/09/29 14:24:44;;;;;;;4.10;0.85;;;;;;;21.37;52.18;101882.50;16108948;19;129999;-55
2023/09/29 14:30:07;;;;;;;2.58;0.85;;;;;;;21.40;51.90;101901.50;16109325;19;129780;-52
2023/09/29 14:35:29;;;;;;;2.45;0.90;;;;;;;21.37;51.89;101908.38;16104213;19;130100;-53
2023/09/29 14:41:09;;;;;;;1.85;0.75;;;;;;;21.36;52.11;101916.97;16116128;19;130829;-53
2023/09/29 14:46:31;;;;;;;2.83;1.00;;;;;;;21.34;51.80;101931.16;16121207;19;131294;-51
2023/09/29 14:51:53;;;;;;;2.10;0.75;;;;;;;21.32;51.91;101954.72;16126106;19;129671;-54
2023/09/29 14:57:18;;;;;;;2.63;1.00;;;;;;;21.29;51.83;101967.19;16121803;19;129550;-55
2023/09/29 15:02:40;;;;;;;3.43;0.87;;;;;;;21.28;51.86;101965.50;16120375;19;130200;-56
2023/09/29 15:08:03;;;;;;;2.55;0.90;;;;;;;21.29;51.78;101977.50;16123948;19;130720;-56
2023/09/29 15:13:25;;;;;;;3.13;0.68;;;;;;;21.29;51.63;101977.50;16121298;19;129736;-53
2023/09/29 15:18:52;;;;;;;4.32;1.05;;;;;;;21.30;51.76;101990.28;16123801;19;132750;-53
2023/09/29 15:24:14;;;;;;;2.45;0.70;;;;;;;21.28;51.71;102003.63;16120969;19;129821;-53
2023/09/29 15:29:36;;;;;;;1.77;0.70;;;;;;;21.27;51.36;102004.72;16118699;19;131237;-56
2023/09/29 15:34:58;;;;;;;4.53;1.20;;;;;;;21.26;51.85;102019.72;16120419;19;129860;-56
2023/09/29 15:40:20;;;;;;;3.13;0.70;;;;;;;21.22;51.65;102031.31;16113196;19;129590;-54
2023/09/29 15:45:42;;;;;;;5.43;0.70;;;;;;;21.20;51.67;102039.03;16114167;19;131083;-55
2023/09/29 15:51:05;;;;;;;3.35;1.05;;;;;;;21.18;51.34;102052.34;16116864;19;129913;-51
2023/09/29 15:56:27;;;;;;;4.25;0.98;;;;;;;21.18;51.60;102060.69;16115030;19;134314;-55
2023/09/29 16:01:50;;;;;;;6.25;1.05;;;;;;;21.19;51.62;102062.38;16117050;19;131046;-56
2023/09/29 16:07:12;;;;;;;7.25;0.90;;;;;;;21.19;52.08;102059.59;16116995;19;130939;-54
2023/09/29 16:12:34;;;;;;;4.00;0.90;;;;;;;21.20;51.85;102066.03;16114353;19;130082;-54
2023/09/29 16:17:56;;;;;;;3.13;0.93;;;;;;;21.19;51.56;102056.81;16117050;19;129378;-53
2023/09/29 16:23:18;;;;;;;5.18;1.05;;;;;;;21.19;52.16;102067.97;16115180;19;129781;-55
2023/09/29 16:28:40;;;;;;;5.20;1.50;;;;;;;21.19;51.90;102073.53;16113239;19;129469;-56
2023/09/29 16:34:03;;;;;;;6.68;2.13;;;;;;;21.18;51.91;102082.94;16116570;19;130895;-54
2023/09/29 16:39:25;;;;;;;10.82;2.35;;;;;;;21.18;51.68;102088.53;16115211;19;131620;-56
2023/09/29 16:44:47;;;;;;;9.55;2.42;;;;;;;21.18;51.70;102094.09;16112421;19;131388;-55
2023/09/29 16:50:10;;;;;;;8.13;2.15;;;;;;;21.19;52.33;102106.09;16119610;19;131089;-56
2023/09/29 16:55:32;;;;;;;9.30;2.00;;;;;;;21.19;52.20;102117.22;16116519;19;129527;-55
2023/09/29 17:00:54;;;;;;;23.92;2.70;;;;;;;21.18;52.26;102130.25;16115622;19;129860;-55
2023/09/29 17:06:16;;;;;;;16.88;2.78;;;;;;;21.19;52.48;102153.38;16108187;19;131194;-56
2023/09/29 17:11:44;;;;;;;27.92;2.53;;;;;;;21.21;52.71;102154.84;16107655;19;129773;-56
2023/09/29 17:17:09;;;;;;;14.10;2.78;;;;;;;21.23;52.27;102157.41;16112256;19;132010;-54
2023/09/29 17:22:31;;;;;;;11.20;1.95;;;;;;;21.25;52.65;102174.72;16111039;19;130153;-57
2023/09/29 17:27:53;;;;;;;6.30;1.73;;;;;;;21.26;52.28;102181.13;16108979;19;130224;-57
2023/09/29 17:33:16;;;;;;;11.70;1.80;;;;;;;21.27;52.46;102191.19;16109469;19;129554;-56
2023/09/29 17:38:40;;;;;;;9.38;1.83;;;;;;;21.27;52.21;102193.97;16108452;19;130837;-55
2023/09/29 17:44:02;;;;;;;8.80;1.90;;;;;;;21.29;52.20;102211.28;16112057;19;129327;-55
2023/09/29 17:49:24;;;;;;;7.43;1.85;;;;;;;21.29;51.91;102211.28;16110197;19;130708;-54
2023/09/29 17:54:46;;;;;;;12.20;1.88;;;;;;;21.29;52.04;102228.00;16112059;19;130654;-54
2023/09/29 18:00:08;;;;;;;12.55;1.73;;;;;;;21.26;52.55;102234.84;16105415;19;129980;-53
2023/09/29 18:05:30;;;;;;;11.10;1.60;;;;;;;21.25;52.22;102237.88;16109413;19;130925;-58
2023/09/29 18:10:53;;;;;;;14.25;1.77;;;;;;;21.24;52.32;102236.19;16111360;19;133229;-57
2023/09/29 18:16:15;;;;;;;16.58;1.70;;;;;;;21.22;52.35;102251.19;16113742;19;131621;-53
2023/09/29 18:21:37;;;;;;;10.48;1.77;;;;;;;21.22;52.39;102251.19;16119093;19;129052;-54
2023/09/29 18:26:59;;;;;;;17.85;2.08;;;;;;;21.21;52.50;102271.72;16123863;19;130858;-56
2023/09/29 18:32:22;;;;;;;15.45;2.20;;;;;;;21.24;52.02;102275.16;16125574;19;130419;-54
2023/09/29 18:37:45;;;;;;;11.63;2.20;;;;;;;21.25;52.42;102285.19;16128972;19;130524;-55
2023/09/29 18:43:08;;;;;;;10.52;2.15;;;;;;;21.24;52.03;102277.94;16129459;19;129102;-57
2023/09/29 18:48:30;;;;;;;19.35;2.38;;;;;;;21.24;52.14;102292.69;16123780;19;129734;-56
2023/09/29 18:53:52;;;;;;;6.18;1.73;;;;;;;21.24;51.97;102311.31;16124740;19;130840;-56
2023/09/29 18:59:14;;;;;;;6.03;1.30;;;;;;;21.23;52.15;102304.91;16120082;19;131112;-56
2023/09/29 19:04:36;;;;;;;10.15;1.88;;;;;;;21.25;51.92;102299.13;16121729;19;131549;-54
2023/09/29 19:09:59;;;;;;;12.15;2.35;;;;;;;21.22;52.10;102306.84;16121693;19;130505;-55
2023/09/29 19:15:21;;;;;;;6.47;1.67;;;;;;;21.22;52.20;102312.41;16124059;19;130248;-53
2023/09/29 19:20:44;;;;;;;7.82;1.67;;;;;;;21.24;51.87;102330.81;16120920;19;129811;-56
2023/09/29 19:26:13;;;;;;;8.85;1.58;;;;;;;21.25;52.24;102326.94;16123253;19;130745;-55
2023/09/29 19:31:35;;;;;;;10.55;2.03;;;;;;;21.22;52.26;102329.09;16126149;19;129300;-55
2023/09/29 19:36:58;;;;;;;12.90;1.60;;;;;;;21.21;52.21;102346.88;16112513;19;131573;-54
2023/09/29 19:42:20;;;;;;;15.73;2.10;;;;;;;21.22;52.58;102356.94;16122329;19;129641;-53
2023/09/29 19:47:43;;;;;;;20.27;1.80;;;;;;;21.24;52.37;102378.13;16121282;19;129754;-51
2023/09/29 19:53:06;;;;;;;12.90;1.45;;;;;;;21.22;52.04;102373.63;16119819;19;129600;-57
2023/09/29 19:58:28;;;;;;;6.85;1.65;;;;;;;21.24;52.13;102369.78;16118380;19;132479;-57
2023/09/29 20:03:50;;;;;;;10.30;1.70;;;;;;;21.22;52.54;102370.84;16110339;19;130015;-56
2023/09/29 20:09:12;;;;;;;7.45;1.65;;;;;;;21.21;52.01;102369.16;16120249;19;131383;-54
2023/09/29 20:14:35;;;;;;;12.13;1.52;;;;;;;21.21;52.50;102371.94;16112516;19;129706;-57
2023/09/29 20:19:58;;;;;;;7.32;1.40;;;;;;;21.21;52.29;102377.50;16117093;19;131005;-59
2023/09/29 20:25:20;;;;;;;10.55;1.67;;;;;;;21.21;52.26;102377.50;16119231;19;129518;-56
2023/09/29 20:30:42;;;;;;;11.63;1.60;;;;;;;21.21;52.29;102394.19;16119260;19;130486;-59
2023/09/29 20:36:04;;;;;;;6.32;1.50;;;;;;;21.21;52.22;102394.19;16117111;19;131839;-57
2023/09/29 20:41:27;;;;;;;11.13;1.60;;;;;;;21.19;52.21;102396.34;16116878;19;129236;-55
2023/09/29 20:46:48;;;;;;;11.45;2.00;;;;;;;21.20;52.22;102403.63;16114712;19;129706;-56
2023/09/29 20:52:11;;;;;;;9.48;1.65;;;;;;;21.20;52.39;102409.19;16115601;19;129726;-57
2023/09/29 20:57:33;;;;;;;15.55;1.45;;;;;;;21.18;52.59;102400.22;16112716;19;134400;-55
2023/09/29 21:02:56;;;;;;;11.20;1.80;;;;;;;21.18;52.26;102396.59;16110492;19;133089;-57
2023/09/29 21:08:18;;;;;;;17.27;2.17;;;;;;;21.17;52.06;102392.94;16111931;19;130016;-56
2023/09/29 21:13:40;;;;;;;8.30;1.27;;;;;;;21.16;51.96;102402.41;16112853;19;130042;-56
2023/09/29 21:19:04;;;;;;;13.20;1.40;;;;;;;21.16;52.34;102407.09;16111009;19;129786;-56
2023/09/29 21:24:26;;;;;;;8.68;1.38;;;;;;;21.15;52.40;102411.81;16108587;19;129775;-57
2023/09/29 21:29:48;;;;;;;18.45;1.75;;;;;;;21.12;52.20;102417.84;16111002;19;133496;-59
2023/09/29 21:35:10;;;;;;;10.32;1.67;;;;;;;21.11;52.22;102432.81;16113803;19;130547;-59
2023/09/29 21:40:32;;;;;;;11.57;1.65;;;;;;;21.08;52.27;102419.34;16115879;19;129724;-59
2023/09/29 21:45:54;;;;;;;15.93;1.63;;;;;;;21.05;52.01;102431.81;16113036;19;130134;-59
2023/09/29 21:51:16;;;;;;;10.88;1.90;;;;;;;21.01;52.31;102427.75;16134885;19;129529;-59
2023/09/29 21:56:39;;;;;;;13.88;1.48;;;;;;;20.99;52.31;102429.91;16144216;19;129744;-59
2023/09/29 22:02:01;;;;;;;8.25;1.38;;;;;;;20.97;52.48;102423.75;16143921;19;129622;-58
2023/09/29 22:07:23;;;;;;;7.85;1.58;;;;;;;20.95;52.00;102420.31;16143749;19;130487;-60
2023/09/29 22:12:46;;;;;;;16.50;1.40;;;;;;;20.95;52.27;102430.59;16146332;19;130147;-60
2023/09/29 22:18:08;;;;;;;9.02;1.40;;;;;;;20.93;52.38;102429.94;16143512;19;131800;-60
2023/09/29 22:23:31;;;;;;;6.93;1.20;;;;;;;20.89;52.27;102419.31;16142516;19;130124;-58
2023/09/29 22:28:53;;;;;;;9.65;1.65;;;;;;;20.88;51.97;102422.28;16143303;19;133869;-60
2023/09/29 22:34:16;;;;;;;6.57;1.55;;;;;;;20.87;52.18;102417.81;16142150;19;130659;-60
2023/09/29 22:39:38;;;;;;;4.75;1.40;;;;;;;20.87;52.21;102426.16;16144708;19;129993;-60
2023/09/29 22:45:09;;;;;;;8.38;1.23;;;;;;;20.85;51.85;102437.50;16139453;19;130778;-60
2023/09/29 22:50:32;;;;;;;4.70;1.38;;;;;;;20.83;51.81;102436.03;16144137;19;130569;-59
2023/09/29 22:55:57;;;;;;;7.75;1.48;;;;;;;20.83;52.01;102445.22;16136580;19;129743;-59
2023/09/29 23:01:19;;;;;;;;;;;;;;;20.80;52.02;102426.19;16131137;19;129715;-59
2023/09/29 23:06:42;;;;;;;6.18;1.30;;;;;;;20.82;51.63;102424.03;16121795;19;129908;-60
2023/09/29 23:12:05;;;;;;;5.30;1.00;;;;;;;20.80;51.88;102434.53;16122449;19;130332;-60
2023/09/29 23:17:27;;;;;;;3.47;1.10;;;;;;;20.80;51.55;102439.25;16122150;19;129248;-60
2023/09/29 23:22:49;;;;;;;5.95;1.08;;;;;;;20.78;51.69;102439.50;16125320;19;129498;-60
2023/09/29 23:28:11;;;;;;;3.75;1.25;;;;;;;20.75;51.54;102435.22;16126379;19;129311;-61
2023/09/29 23:33:34;;;;;;;5.10;1.00;;;;;;;20.75;51.56;102428.78;16120162;19;130550;-60
2023/09/29 23:38:57;;;;;;;3.80;1.30;;;;;;;20.74;51.59;102432.63;16126029;19;129468;-60
2023/09/29 23:44:19;;;;;;;5.45;1.10;;;;;;;20.74;51.71;102444.59;16124949;19;130509;-62
2023/09/29 23:49:41;;;;;;;5.28;1.02;;;;;;;20.74;51.94;102446.53;16114932;19;130573;-60
2023/09/29 23:55:04;;;;;;;4.15;1.10;;;;;;;20.73;51.67;102464.31;16120399;19;130676;-60
